Time;durP1;ratioP1;P1;durP2;ratioP2;P2;SDS_P1;SDS_P2;PMS_P1;PMS_P2;Temp;Humidity;BMP_temperature;BMP_pressure;BME280_temperature;BME280_humidity;BME280_pressure;Samples;Min_cycle;Max_cycle;Signal;HPM_P1;HPM_P2
2022/09/30 00:10:16;;;;;;;42.60;21.10;;;;;;;6.23;100.00;99787.73;658009;1280;138815;-84
2022/09/30 00:25:19;;;;;;;59.90;25.80;;;;;;;6.09;100.00;99794.42;657541;1280;138818;-84
2022/09/30 00:40:22;;;;;;;37.90;21.60;;;;;;;5.95;100.00;99804.11;657106;1280;138889;-86
2022/09/30 00:55:33;;;;;;;33.00;20.00;;;;;;;5.96;100.00;99823.15;657449;1280;140895;-85
2022/09/30 01:10:36;;;;;;;26.10;15.30;;;;;;;5.93;99.96;99832.17;658134;1277;139375;-84
2022/09/30 01:26:11;;;;;;;36.60;19.50;;;;;;;5.80;99.96;99823.98;658798;1277;138644;-85
2022/09/30 01:41:28;;;;;;;52.50;25.80;;;;;;;5.46;99.91;99818.38;657609;1277;139396;-84
2022/09/30 01:56:35;;;;;;;40.10;22.80;;;;;;;5.44;100.00;99809.27;659851;1277;139502;-85
2022/09/30 02:11:41;;;;;;;41.90;21.50;;;;;;;5.30;99.84;99828.72;658514;1277;139492;-85
2022/09/30 02:26:48;;;;;;;42.50;21.90;;;;;;;5.16;99.79;99836.11;657701;1277;139245;-85
2022/09/30 02:41:57;;;;;;;39.90;20.80;;;;;;;5.01;99.90;99855.92;658201;1277;139388;-84
2022/09/30 02:57:19;;;;;;;48.70;22.40;;;;;;;4.94;99.70;99854.69;658151;1277;138866;-85
2022/09/30 03:12:47;;;;;;;34.60;19.10;;;;;;;4.93;99.91;99866.04;659043;1277;138442;-85
2022/09/30 03:27:59;;;;;;;;;;;;;;;4.89;100.00;99888.52;657861;1276;139373;-86
2022/09/30 03:43:30;;;;;;;54.80;24.30;;;;;;;4.76;100.00;99895.42;658037;1277;124830;-85
2022/09/30 03:58:34;;;;;;;41.50;19.00;;;;;;;4.62;100.00;99912.86;658014;1277;139261;-85
2022/09/30 04:13:38;;;;;;;41.60;18.20;;;;;;;4.51;100.00;99915.35;658530;1277;139080;-85
2022/09/30 04:28:42;;;;;;;31.90;16.40;;;;;;;4.46;100.00;99927.98;660865;1277;140665;-86
2022/09/30 04:43:47;;;;;;;33.00;15.40;;;;;;;4.42;99.93;99937.95;661091;1276;139148;-85
2022/09/30 04:58:52;;;;;;;38.40;19.60;;;;;;;4.45;99.97;99941.61;661540;1277;139636;-84
2022/09/30 05:13:55;;;;;;;34.10;17.80;;;;;;;4.50;99.92;99951.48;664936;1277;139758;-86
2022/09/30 05:28:58;;;;;;;36.00;17.50;;;;;;;4.58;99.95;99978.80;658645;1277;139088;-85
2022/09/30 05:44:02;;;;;;;73.60;34.30;;;;;;;4.72;99.83;99984.30;658031;1277;1006091;-86
2022/09/30 05:59:06;;;;;;;79.40;34.40;;;;;;;5.00;99.94;100002.45;659171;1277;139288;-86
2022/09/30 06:14:09;;;;;;;96.50;43.00;;;;;;;5.45;99.84;100016.48;658798;1277;139476;-85
2022/09/30 06:29:13;;;;;;;75.60;39.90;;;;;;;6.39;100.00;100026.58;657429;1276;139372;-83
2022/09/30 06:44:16;;;;;;;93.00;48.70;;;;;;;7.64;100.00;100039.45;659034;1277;139889;-86
2022/09/30 06:59:20;;;;;;;71.00;37.40;;;;;;;8.48;100.00;100046.64;659794;1277;138950;-86
2022/09/30 07:14:23;;;;;;;78.40;44.70;;;;;;;9.53;100.00;100056.59;659435;1277;139976;-85
2022/09/30 07:29:26;;;;;;;152.90;82.40;;;;;;;9.93;100.00;100084.72;661372;1276;138851;-84
2022/09/30 07:44:47;;;;;;;129.00;72.00;;;;;;;10.43;100.00;100100.76;661045;1277;139490;-85
2022/09/30 07:59:51;;;;;;;92.00;47.80;;;;;;;11.72;100.00;100122.02;661719;1277;139767;-86
2022/09/30 08:14:54;;;;;;;33.70;21.20;;;;;;;13.95;100.00;100125.06;659835;1277;140092;-86
2022/09/30 08:29:57;;;;;;;33.20;19.00;;;;;;;14.55;100.00;100124.80;659414;1277;140035;-85
2022/09/30 08:45:23;;;;;;;29.90;20.00;;;;;;;14.91;99.75;100141.41;660532;1277;139820;-87
2022/09/30 09:00:27;;;;;;;27.60;18.10;;;;;;;15.34;98.48;100149.73;657263;1277;139866;-86
2022/09/30 09:15:51;;;;;;;43.10;26.50;;;;;;;15.24;95.46;100162.86;666069;1276;139463;-85
2022/09/30 09:30:58;;;;;;;28.30;18.60;;;;;;;15.40;94.13;100163.34;667678;1276;139890;-87
2022/09/30 09:46:36;;;;;;;26.90;16.90;;;;;;;15.76;92.06;100170.95;659525;1277;138982;-87
2022/09/30 10:01:46;;;;;;;32.90;19.40;;;;;;;16.24;89.46;100174.27;658719;1277;139219;-88
2022/09/30 10:17:16;;;;;;;23.40;16.50;;;;;;;17.02;84.98;100170.23;658496;1277;139362;-89
2022/09/30 10:32:20;;;;;;;23.20;15.70;;;;;;;18.43;81.10;100164.39;658608;1277;142730;-88
2022/09/30 10:47:26;;;;;;;17.70;13.50;;;;;;;19.08;74.66;100163.52;658347;1276;138830;-86
2022/09/30 11:02:42;;;;;;;20.60;14.30;;;;;;;20.01;70.31;100153.59;659345;1277;138612;-86
2022/09/30 11:17:56;;;;;;;16.20;14.20;;;;;;;20.17;65.56;100142.98;660050;1277;140925;-87
2022/09/30 11:33:16;;;;;;;10.60;8.50;;;;;;;20.75;64.52;100141.39;663313;1277;138872;-87
2022/09/30 11:48:34;;;;;;;9.30;6.90;;;;;;;20.81;61.87;100133.86;657716;1277;139474;-87
2022/09/30 12:03:45;;;;;;;13.90;9.80;;;;;;;19.93;59.87;100134.02;658918;1277;138396;-88
2022/09/30 12:19:14;;;;;;;10.70;9.10;;;;;;;20.02;60.65;100140.85;658885;1277;138334;-87
2022/09/30 12:34:39;;;;;;;11.80;9.40;;;;;;;19.15;61.84;100133.57;658513;1277;139323;-86
2022/09/30 12:49:45;;;;;;;13.00;9.00;;;;;;;18.50;59.26;100126.20;658702;1276;139183;-87
2022/09/30 13:04:49;;;;;;;12.50;9.20;;;;;;;18.55;58.51;100119.96;657698;1277;139425;-86
2022/09/30 13:19:56;;;;;;;17.10;9.50;;;;;;;18.28;58.02;100125.10;659053;1277;140047;-85
2022/09/30 13:34:59;;;;;;;19.50;13.70;;;;;;;18.06;58.65;100117.29;657907;1277;139147;-86
2022/09/30 13:50:19;;;;;;;24.60;17.50;;;;;;;17.27;62.15;100121.77;657783;1277;139847;-86
2022/09/30 14:05:49;;;;;;;22.30;14.30;;;;;;;16.96;64.36;100124.00;658008;1277;141087;-86
2022/09/30 14:21:26;;;;;;;21.10;14.90;;;;;;;16.84;66.11;100137.08;658821;1277;139455;-85
2022/09/30 14:36:29;;;;;;;32.30;21.90;;;;;;;16.73;67.05;100144.45;659013;1277;139002;-86
2022/09/30 14:51:45;;;;;;;39.70;35.50;;;;;;;16.45;67.84;100147.52;658280;1277;139877;-84
2022/09/30 15:06:51;;;;;;;28.60;20.20;;;;;;;16.39;68.73;100147.37;657969;1277;139397;-86
2022/09/30 15:22:01;;;;;;;29.80;20.20;;;;;;;17.11;69.63;100146.21;658627;1277;138894;-86
2022/09/30 15:37:05;;;;;;;27.40;18.80;;;;;;;18.33;68.22;100153.33;658911;1277;139482;-86
2022/09/30 15:52:35;;;;;;;87.40;52.60;;;;;;;18.53;67.53;100151.27;657645;1277;138903;-86
2022/09/30 16:07:40;;;;;;;;;;;;;;;18.00;66.52;100168.91;657974;1279;140116;-86
2022/09/30 16:22:45;;;;;;;153.60;74.10;;;;;;;16.32;68.84;100181.96;657449;1277;124441;-86
2022/09/30 16:37:50;;;;;;;144.10;68.30;;;;;;;15.16;72.47;100182.83;658032;1277;139192;-86
2022/09/30 16:52:53;;;;;;;232.80;106.00;;;;;;;14.50;75.35;100190.71;657978;1277;139701;-86
2022/09/30 17:07:58;;;;;;;114.90;60.30;;;;;;;13.74;77.44;100205.83;658210;1277;140819;-84
2022/09/30 17:23:03;;;;;;;197.30;84.20;;;;;;;13.28;80.74;100207.27;657944;1277;142575;-85
2022/09/30 17:38:11;;;;;;;92.20;48.60;;;;;;;13.03;82.72;100216.95;661582;1277;139425;-87
2022/09/30 17:53:16;;;;;;;85.80;47.20;;;;;;;12.64;84.06;100216.40;666891;1279;1080982;-85
2022/09/30 18:08:20;;;;;;;259.30;115.30;;;;;;;12.26;85.40;100214.83;658880;1278;140954;-84
2022/09/30 18:23:25;;;;;;;299.50;136.30;;;;;;;11.89;86.98;100209.02;658145;1278;140457;-84
2022/09/30 18:38:33;;;;;;;174.40;90.20;;;;;;;11.52;87.49;100224.55;658960;1277;139634;-85
2022/09/30 18:53:37;;;;;;;57.10;35.40;;;;;;;11.21;89.18;100222.02;658033;1277;140921;-85
2022/09/30 19:08:42;;;;;;;151.40;71.90;;;;;;;10.91;89.57;100213.12;658541;1277;140382;-84
2022/09/30 19:23:47;;;;;;;244.70;107.50;;;;;;;10.60;89.96;100207.53;660292;1277;141564;-86
2022/09/30 19:38:55;;;;;;;215.20;97.20;;;;;;;10.38;90.20;100215.15;658860;1279;139900;-85
2022/09/30 19:54:13;;;;;;;208.30;91.60;;;;;;;10.22;90.58;100226.72;658727;1277;142654;-85
2022/09/30 20:09:17;;;;;;;202.90;86.80;;;;;;;10.14;91.05;100229.34;658645;1278;139876;-85
2022/09/30 20:24:21;;;;;;;109.80;53.40;;;;;;;9.93;91.62;100216.44;659320;1277;140654;-85
2022/09/30 20:39:24;;;;;;;177.00;80.20;;;;;;;9.77;93.03;100218.38;656996;1277;139205;-85
2022/09/30 20:54:30;;;;;;;217.00;95.20;;;;;;;9.62;92.77;100221.08;657833;1277;140775;-85
2022/09/30 21:09:33;;;;;;;287.00;122.90;;;;;;;9.55;93.56;100212.20;657727;1277;140995;-85
2022/09/30 21:24:37;;;;;;;259.50;116.70;;;;;;;9.40;93.50;100205.19;658195;1277;140425;-86
2022/09/30 21:39:40;;;;;;;275.30;114.60;;;;;;;9.28;93.84;100209.70;658551;1277;141620;-87
2022/09/30 21:54:43;;;;;;;270.60;115.80;;;;;;;9.18;94.06;100210.02;658354;1278;141742;-85
2022/09/30 22:09:46;;;;;;;245.60;105.60;;;;;;;9.21;94.84;100210.64;657975;1277;141029;-86
2022/09/30 22:24:50;;;;;;;207.80;95.20;;;;;;;9.12;94.76;100215.35;658516;1279;141094;-85
2022/09/30 22:39:53;;;;;;;217.50;96.70;;;;;;;8.95;96.09;100207.72;658184;1277;140221;-85
2022/09/30 22:55:02;;;;;;;200.90;93.20;;;;;;;8.89;96.45;100204.23;657781;1278;140964;-85
2022/09/30 23:10:07;;;;;;;201.10;88.20;;;;;;;8.91;96.75;100205.79;657623;1279;139967;-86
2022/09/30 23:25:11;;;;;;;84.50;44.50;;;;;;;8.92;97.83;100205.82;657133;1277;140789;-85
2022/09/30 23:40:14;;;;;;;109.80;50.80;;;;;;;9.03;98.59;100197.66;657148;1278;140145;-84
2022/09/30 23:55:17;;;;;;;127.30;63.20;;;;;;;8.98;98.61;100195.95;656559;1278;140282;-86
